createdAt,value
2023-03-06T00:01:29.270Z,4.37
2023-03-06T00:05:29.213Z,5.00
2023-03-06T00:09:29.194Z,4.86
2023-03-06T00:13:29.171Z,5.04
2023-03-06T00:17:29.146Z,4.50
2023-03-06T00:21:29.088Z,4.68
2023-03-06T00:25:29.066Z,3.97
2023-03-06T00:29:28.998Z,4.80
2023-03-06T00:33:29.050Z,4.76
2023-03-06T00:37:29.190Z,4.67
2023-03-06T00:41:29.291Z,4.29
2023-03-06T00:45:29.590Z,5.00
2023-03-06T00:49:29.673Z,5.08
2023-03-06T00:53:29.803Z,5.14
2023-03-06T00:57:29.940Z,4.50
2023-03-06T01:01:30.098Z,4.15
2023-03-06T01:05:30.206Z,4.40
2023-03-06T01:09:30.294Z,4.60
2023-03-06T01:13:30.530Z,4.16
2023-03-06T01:17:30.537Z,4.92
2023-03-06T01:21:30.682Z,5.29
2023-03-06T01:25:30.715Z,4.67
2023-03-06T01:29:30.793Z,5.21
2023-03-06T01:33:30.882Z,4.60
2023-03-06T01:37:30.895Z,4.47
2023-03-06T01:41:30.980Z,4.89
2023-03-06T01:45:30.989Z,5.24
2023-03-06T01:49:30.957Z,4.30
2023-03-06T01:53:30.965Z,4.23
2023-03-06T01:57:30.999Z,4.82
2023-03-06T02:01:30.986Z,4.35
2023-03-06T02:05:30.947Z,5.01
2023-03-06T02:09:30.967Z,4.16
2023-03-06T02:13:30.967Z,4.68
2023-03-06T02:17:31.067Z,5.57
2023-03-06T02:21:31.046Z,4.64
2023-03-06T02:25:31.021Z,5.21
2023-03-06T02:29:31.032Z,4.71
2023-03-06T02:33:31.013Z,5.42
2023-03-06T02:37:31.014Z,5.34
2023-03-06T02:41:31.035Z,4.41
2023-03-06T02:45:31.035Z,4.60
2023-03-06T02:49:31.004Z,4.96
2023-03-06T02:53:30.989Z,4.90
2023-03-06T02:57:31.018Z,4.68
2023-03-06T03:01:31.044Z,5.87
2023-03-06T03:05:31.022Z,5.60
2023-03-06T03:09:31.010Z,4.45
2023-03-06T03:13:31.033Z,4.30
2023-03-06T03:17:31.044Z,4.63
2023-03-06T03:21:31.103Z,4.42
2023-03-06T03:25:31.105Z,4.57
2023-03-06T03:29:31.098Z,4.17
2023-03-06T03:33:31.201Z,3.89
2023-03-06T03:37:31.206Z,4.62
2023-03-06T03:41:31.623Z,4.97
2023-03-06T03:45:31.199Z,4.77
2023-03-06T03:49:31.284Z,4.67
2023-03-06T03:53:31.280Z,4.31
2023-03-06T03:57:31.331Z,4.61
2023-03-06T04:01:31.563Z,4.48
2023-03-06T04:05:31.415Z,4.26
2023-03-06T04:09:31.450Z,4.92
2023-03-06T04:13:31.496Z,5.08
2023-03-06T04:17:31.546Z,4.79
2023-03-06T04:21:31.632Z,5.18
2023-03-06T04:25:31.675Z,5.20
2023-03-06T04:29:31.684Z,4.98
2023-03-06T04:33:31.701Z,4.70
2023-03-06T04:37:31.721Z,4.85
2023-03-06T04:41:31.747Z,5.69
2023-03-06T04:45:31.798Z,4.48
2023-03-06T04:49:31.825Z,4.71
2023-03-06T04:53:31.822Z,5.03
2023-03-06T04:57:31.909Z,5.43
2023-03-06T05:01:31.978Z,6.61
2023-03-06T05:05:32.142Z,6.25
2023-03-06T05:09:32.186Z,5.86
2023-03-06T05:13:32.266Z,6.50
2023-03-06T05:17:32.312Z,6.02
2023-03-06T05:21:32.366Z,5.74
2023-03-06T05:25:32.345Z,6.65
2023-03-06T05:29:32.425Z,6.19
2023-03-06T05:33:32.445Z,6.50
2023-03-06T05:37:32.495Z,5.56
2023-03-06T05:41:32.523Z,5.97
2023-03-06T05:45:32.568Z,6.56
2023-03-06T05:49:32.565Z,6.75
2023-03-06T05:53:32.641Z,6.10
2023-03-06T05:57:32.652Z,5.79
2023-03-06T06:01:32.661Z,5.34
2023-03-06T06:05:32.694Z,5.48
2023-03-06T06:09:32.747Z,4.68
2023-03-06T06:13:32.715Z,4.92
2023-03-06T06:17:32.753Z,5.13
2023-03-06T06:21:32.756Z,5.36
2023-03-06T06:25:32.762Z,5.19
2023-03-06T06:29:32.797Z,5.21
2023-03-06T06:33:32.768Z,4.99
2023-03-06T06:37:32.803Z,5.78
2023-03-06T06:41:51.090Z,7.11
2023-03-06T06:45:33.788Z,6.95
2023-03-06T06:49:33.197Z,8.47
2023-03-06T06:53:32.681Z,8.79
2023-03-06T06:57:32.687Z,11.86
2023-03-06T07:01:32.818Z,10.18
2023-03-06T07:05:32.810Z,8.67
2023-03-06T07:09:33.205Z,8.42
2023-03-06T07:13:33.191Z,7.29
2023-03-06T07:17:32.725Z,6.58
2023-03-06T07:21:32.711Z,6.51
2023-03-06T07:25:32.690Z,6.86
2023-03-06T07:29:32.717Z,5.91
2023-03-06T07:33:32.595Z,6.67
2023-03-06T07:37:32.731Z,5.21
2023-03-06T07:41:32.528Z,6.05
2023-03-06T07:45:32.717Z,5.97
2023-03-06T07:49:32.478Z,6.26
2023-03-06T07:53:32.704Z,5.75
2023-03-06T07:57:32.704Z,5.34
2023-03-06T08:01:32.374Z,5.04
2023-03-06T08:05:32.397Z,4.64
2023-03-06T08:09:32.384Z,5.60
2023-03-06T08:13:32.725Z,5.40
2023-03-06T08:17:32.359Z,5.07
2023-03-06T08:21:32.255Z,5.33
2023-03-06T08:25:32.224Z,4.97
2023-03-06T08:29:32.438Z,4.84
2023-03-06T08:33:32.141Z,5.48
2023-03-06T08:37:32.146Z,5.76
2023-03-06T08:41:32.243Z,4.47
2023-03-06T08:45:32.396Z,5.29
2023-03-06T08:49:32.255Z,5.41
2023-03-06T08:53:42.534Z,9.51
2023-03-06T08:57:32.939Z,9.85
2023-03-06T09:01:32.249Z,7.17
2023-03-06T09:05:31.861Z,6.73
2023-03-06T09:09:31.844Z,6.45
2023-03-06T09:13:31.908Z,6.24
2023-03-06T09:17:31.918Z,6.82
2023-03-06T09:21:31.857Z,5.13
2023-03-06T09:25:31.815Z,5.50
2023-03-06T09:29:31.813Z,5.26
2023-03-06T09:33:31.735Z,4.70
2023-03-06T09:37:31.762Z,5.41
2023-03-06T09:41:31.746Z,5.52
2023-03-06T09:45:31.642Z,5.30
2023-03-06T09:49:31.613Z,4.82
2023-03-06T09:53:31.756Z,4.98
2023-03-06T09:57:31.763Z,5.77
2023-03-06T10:01:31.514Z,5.22
2023-03-06T10:05:31.475Z,7.09
2023-03-06T10:09:31.456Z,6.26
2023-03-06T10:13:31.419Z,5.51
2023-03-06T10:17:31.777Z,4.44
2023-03-06T10:21:31.515Z,5.24
2023-03-06T10:25:32.267Z,5.48
2023-03-06T10:29:31.533Z,4.68
2023-03-06T10:33:31.761Z,4.80
2023-03-06T10:37:32.654Z,4.25
2023-03-06T10:41:32.295Z,4.66
2023-03-06T10:45:47.292Z,4.83
2023-03-06T10:49:33.307Z,4.15
2023-03-06T10:53:32.185Z,4.74
2023-03-06T10:57:32.134Z,4.03
2023-03-06T11:01:32.343Z,4.12
2023-03-06T11:05:32.056Z,4.47
2023-03-06T11:09:32.059Z,3.80
2023-03-06T11:13:31.986Z,3.93
2023-03-06T11:17:32.003Z,4.06
2023-03-06T11:21:32.287Z,4.03
2023-03-06T11:25:31.894Z,4.46
2023-03-06T11:29:34.298Z,3.41
2023-03-06T11:33:31.796Z,3.50
2023-03-06T11:37:31.804Z,4.44
2023-03-06T11:41:31.738Z,4.28
2023-03-06T11:45:31.789Z,5.01
2023-03-06T11:49:31.681Z,5.17
2023-03-06T11:53:31.611Z,5.85
2023-03-06T11:57:31.575Z,6.07
2023-03-06T12:01:31.538Z,5.80
2023-03-06T12:05:31.561Z,5.98
2023-03-06T12:09:31.487Z,6.62
2023-03-06T12:13:31.477Z,5.75
2023-03-06T12:17:31.802Z,5.68
2023-03-06T12:21:31.362Z,6.55
2023-03-06T12:25:31.333Z,4.90
2023-03-06T12:29:31.368Z,6.07
2023-03-06T12:33:31.232Z,5.57
2023-03-06T12:37:31.338Z,6.03
2023-03-06T12:41:31.193Z,6.05
2023-03-06T12:45:31.300Z,5.53
2023-03-06T12:49:32.995Z,5.53
2023-03-06T12:53:31.309Z,4.98
2023-03-06T12:57:31.129Z,5.78
2023-03-06T13:01:31.179Z,5.67
2023-03-06T13:05:31.311Z,6.14
2023-03-06T13:09:31.315Z,5.78
2023-03-06T13:13:31.272Z,5.97
2023-03-06T13:17:31.216Z,6.14
2023-03-06T13:21:31.350Z,7.65
2023-03-06T13:25:31.304Z,9.31
2023-03-06T13:29:31.122Z,8.31
2023-03-06T13:33:31.088Z,8.31
2023-03-06T13:37:31.062Z,8.43
2023-03-06T13:41:31.099Z,8.56
2023-03-06T13:45:30.988Z,9.93
2023-03-06T13:49:30.948Z,9.42
2023-03-06T13:53:30.941Z,8.63
2023-03-06T13:57:30.890Z,9.52
2023-03-06T14:01:30.903Z,10.25
2023-03-06T14:05:30.782Z,8.96
2023-03-06T14:09:30.754Z,9.40
2023-03-06T14:13:38.411Z,9.94
2023-03-06T14:17:31.708Z,8.82
2023-03-06T14:21:30.665Z,8.82
2023-03-06T14:25:30.722Z,10.39
2023-03-06T14:29:30.697Z,10.02
2023-03-06T14:33:30.633Z,9.64
2023-03-06T14:37:30.642Z,11.12
2023-03-06T14:41:30.587Z,10.64
2023-03-06T14:45:30.559Z,10.24
2023-03-06T14:49:30.513Z,10.98
2023-03-06T14:53:30.476Z,10.43
2023-03-06T14:57:30.428Z,10.79
2023-03-06T15:01:30.485Z,10.13
2023-03-06T15:05:30.350Z,11.86
2023-03-06T15:09:30.359Z,11.52
2023-03-06T15:13:30.400Z,12.25
2023-03-06T15:17:30.245Z,11.02
2023-03-06T15:21:30.202Z,11.49
2023-03-06T15:25:30.207Z,13.60
2023-03-06T15:29:30.142Z,13.28
2023-03-06T15:33:30.113Z,13.12
2023-03-06T15:37:30.077Z,13.01
2023-03-06T15:41:30.026Z,14.36
2023-03-06T15:45:30.064Z,14.37
2023-03-06T15:49:29.992Z,12.72
2023-03-06T15:53:29.946Z,12.54
2023-03-06T15:57:29.924Z,13.50
2023-03-06T16:01:29.981Z,13.37
2023-03-06T16:05:29.877Z,13.21
2023-03-06T16:09:29.992Z,12.10
2023-03-06T16:13:30.070Z,13.32
2023-03-06T16:17:30.105Z,13.62
2023-03-06T16:21:30.214Z,13.45
2023-03-06T16:25:30.316Z,14.34
2023-03-06T16:29:30.452Z,15.29
2023-03-06T16:33:30.612Z,14.34
2023-03-06T16:37:30.791Z,13.00
2023-03-06T16:41:31.000Z,13.88
2023-03-06T16:45:31.139Z,14.04
2023-03-06T16:49:31.321Z,14.74
2023-03-06T16:53:31.468Z,14.33
2023-03-06T16:57:32.391Z,14.54
2023-03-06T17:01:32.005Z,14.11
2023-03-06T17:05:31.990Z,14.44
2023-03-06T17:09:32.182Z,14.33
2023-03-06T17:13:32.355Z,16.41
2023-03-06T17:17:32.597Z,15.43
2023-03-06T17:21:32.537Z,14.24
2023-03-06T17:25:32.529Z,14.52
2023-03-06T17:29:32.502Z,14.70
2023-03-06T17:33:32.469Z,15.65
2023-03-06T17:37:32.405Z,15.62
2023-03-06T17:41:32.412Z,15.64
2023-03-06T17:45:32.350Z,15.58
2023-03-06T17:49:32.307Z,15.40
2023-03-06T17:53:32.283Z,16.51
2023-03-06T17:57:32.305Z,16.41
2023-03-06T18:01:32.193Z,15.57
2023-03-06T18:05:32.192Z,17.47
2023-03-06T18:09:32.280Z,16.25
2023-03-06T18:13:32.404Z,17.34
2023-03-06T18:17:32.549Z,16.07
2023-03-06T18:21:32.714Z,16.84
2023-03-06T18:25:32.899Z,17.80
2023-03-06T18:29:32.852Z,18.52
2023-03-06T18:33:32.861Z,19.21
2023-03-06T18:37:32.835Z,19.37
2023-03-06T18:41:32.778Z,18.14
2023-03-06T18:45:32.772Z,20.88
2023-03-06T18:49:32.732Z,22.04
2023-03-06T18:53:32.658Z,20.75
2023-03-06T18:57:32.649Z,20.98
2023-03-06T19:01:32.632Z,20.39
2023-03-06T19:05:32.567Z,21.37
2023-03-06T19:09:32.519Z,20.21
2023-03-06T19:13:32.514Z,18.56
2023-03-06T19:17:32.443Z,18.86
2023-03-06T19:21:32.437Z,17.55
2023-03-06T19:25:32.383Z,17.80
2023-03-06T19:29:32.349Z,18.41
2023-03-06T19:33:32.362Z,18.36
2023-03-06T19:37:32.268Z,17.57
2023-03-06T19:41:32.209Z,19.39
2023-03-06T19:45:32.279Z,18.21
2023-03-06T19:49:32.136Z,17.00
2023-03-06T19:53:32.275Z,16.88
2023-03-06T19:57:32.425Z,17.28
2023-03-06T20:01:32.644Z,18.30
2023-03-06T20:05:32.702Z,16.53
2023-03-06T20:09:32.838Z,17.06
2023-03-06T20:13:32.972Z,17.02
2023-03-06T20:17:33.087Z,17.25
2023-03-06T20:21:33.232Z,17.58
2023-03-06T20:25:33.363Z,16.98
2023-03-06T20:29:33.530Z,18.12
2023-03-06T20:33:33.715Z,17.39
2023-03-06T20:37:33.920Z,17.47
2023-03-06T20:41:34.151Z,17.69
2023-03-06T20:45:34.372Z,16.44
2023-03-06T20:49:34.579Z,17.30
2023-03-06T20:53:34.790Z,17.07
2023-03-06T20:57:34.976Z,15.96
2023-03-06T21:01:34.992Z,17.21
2023-03-06T21:05:34.980Z,16.87
2023-03-06T21:09:34.870Z,17.77
2023-03-06T21:13:34.858Z,17.50
2023-03-06T21:17:34.794Z,15.78
2023-03-06T21:21:34.793Z,16.90
2023-03-06T21:25:34.749Z,17.93
2023-03-06T21:29:34.699Z,16.03
2023-03-06T21:33:34.672Z,16.43
2023-03-06T21:37:34.661Z,16.27
2023-03-06T21:41:34.771Z,16.94
2023-03-06T21:45:34.934Z,16.49
2023-03-06T21:49:34.907Z,18.05
2023-03-06T21:53:34.813Z,17.63
2023-03-06T21:57:34.782Z,17.30
2023-03-06T22:01:34.729Z,16.82
2023-03-06T22:05:34.715Z,17.89
2023-03-06T22:09:34.672Z,18.30
2023-03-06T22:13:34.670Z,17.68
2023-03-06T22:17:34.631Z,17.79
2023-03-06T22:21:34.601Z,17.32
2023-03-06T22:25:34.510Z,17.21
2023-03-06T22:29:34.500Z,16.36
2023-03-06T22:33:34.445Z,17.79
2023-03-06T22:37:34.456Z,17.82
2023-03-06T22:41:34.394Z,17.39
2023-03-06T22:45:34.746Z,17.24
2023-03-06T22:49:34.310Z,17.26
2023-03-06T22:53:34.290Z,17.00
2023-03-06T22:57:34.266Z,17.36
2023-03-06T23:01:34.290Z,18.59
2023-03-06T23:05:34.412Z,18.28
2023-03-06T23:09:34.653Z,16.94
2023-03-06T23:13:34.612Z,16.65
2023-03-06T23:17:34.529Z,15.50
2023-03-06T23:21:34.529Z,16.72
2023-03-06T23:25:34.488Z,17.06
2023-03-06T23:29:34.448Z,17.99
2023-03-06T23:33:34.436Z,17.25
2023-03-06T23:37:34.397Z,16.36
2023-03-06T23:41:34.349Z,16.78
2023-03-06T23:45:34.327Z,17.88
2023-03-06T23:49:34.281Z,16.72
2023-03-06T23:53:34.235Z,17.25
2023-03-06T23:57:34.183Z,17.07
